<?xml version="1.0" encoding="UTF-8" standalone="no" ?>
<gpx xmlns="http://www.topografix.com/GPX/1/1" xmlns:xsi="http://www.w3.org/2001/XMLSchema-instance" xsi:schemaLocation="http://www.topografix.com/GPX/1/1 http://www.topografix.com/GPX/1/1/gpx.xsd" version="1.1" creator="VisuGPX - https://www.visugpx.com">
  <metadata>
    <name>Rando LN</name>
  </metadata>
  <trk>
    <name><![CDATA[Les vans]]></name>
    <extensions>
      <line xmlns="http://www.topografix.com/GPX/gpx_style/0/2">
        <color>ff0000</color>
        <width>4</width>
      </line>
    </extensions>
    <trkseg>
      <trkpt lat="44.36583" lon="4.09441">
        <ele>284.235</ele>
        <time>2020-09-09T02:12:48Z</time>
      </trkpt>
      <trkpt lat="44.36577" lon="4.09508">
        <ele>277.698</ele>
        <time>2020-09-09T02:12:28Z</time>
      </trkpt>
      <trkpt lat="44.36546" lon="4.09575">
        <ele>279.727</ele>
        <time>2020-09-09T02:12:08Z</time>
      </trkpt>
      <trkpt lat="44.36526" lon="4.09704">
        <ele>284.533</ele>
        <time>2020-09-09T02:11:48Z</time>
      </trkpt>
      <trkpt lat="44.36534" lon="4.09717">
        <ele>285.273</ele>
        <time>2020-09-09T02:11:28Z</time>
      </trkpt>
      <trkpt lat="44.36591" lon="4.09719">
        <ele>298.219</ele>
        <time>2020-09-09T02:11:08Z</time>
      </trkpt>
      <trkpt lat="44.36589" lon="4.09781">
        <ele>296.332</ele>
        <time>2020-09-09T02:10:48Z</time>
      </trkpt>
      <trkpt lat="44.36535" lon="4.09831">
        <ele>289.031</ele>
        <time>2020-09-09T02:10:28Z</time>
      </trkpt>
      <trkpt lat="44.36531" lon="4.09874">
        <ele>291.508</ele>
        <time>2020-09-09T02:10:08Z</time>
      </trkpt>
      <trkpt lat="44.36543" lon="4.09893">
        <ele>291.813</ele>
        <time>2020-09-09T02:09:48Z</time>
      </trkpt>
      <trkpt lat="44.36511" lon="4.09932">
        <ele>290.621</ele>
        <time>2020-09-09T02:09:28Z</time>
      </trkpt>
      <trkpt lat="44.36547" lon="4.0993">
        <ele>288.961</ele>
        <time>2020-09-09T02:09:08Z</time>
      </trkpt>
      <trkpt lat="44.36569" lon="4.09919">
        <ele>289.238</ele>
        <time>2020-09-09T02:08:48Z</time>
      </trkpt>
      <trkpt lat="44.36643" lon="4.09975">
        <ele>283.041</ele>
        <time>2020-09-09T02:08:28Z</time>
      </trkpt>
      <trkpt lat="44.36701" lon="4.10059">
        <ele>277.37</ele>
        <time>2020-09-09T02:08:08Z</time>
      </trkpt>
      <trkpt lat="44.36686" lon="4.10132">
        <ele>273.546</ele>
        <time>2020-09-09T02:07:48Z</time>
      </trkpt>
      <trkpt lat="44.36716" lon="4.10136">
        <ele>273.986</ele>
        <time>2020-09-09T02:07:28Z</time>
      </trkpt>
      <trkpt lat="44.36746" lon="4.10182">
        <ele>272.352</ele>
        <time>2020-09-09T02:07:08Z</time>
      </trkpt>
      <trkpt lat="44.36804" lon="4.1021">
        <ele>272.985</ele>
        <time>2020-09-09T02:06:48Z</time>
      </trkpt>
      <trkpt lat="44.36833" lon="4.10236">
        <ele>272.434</ele>
        <time>2020-09-09T02:06:28Z</time>
      </trkpt>
      <trkpt lat="44.36949" lon="4.10369">
        <ele>281.708</ele>
        <time>2020-09-09T02:06:08Z</time>
      </trkpt>
      <trkpt lat="44.3713" lon="4.10539">
        <ele>285.622</ele>
        <time>2020-09-09T02:05:48Z</time>
      </trkpt>
      <trkpt lat="44.37191" lon="4.1056">
        <ele>286.857</ele>
        <time>2020-09-09T02:05:28Z</time>
      </trkpt>
      <trkpt lat="44.37366" lon="4.10532">
        <ele>303.994</ele>
        <time>2020-09-09T02:05:08Z</time>
      </trkpt>
      <trkpt lat="44.37427" lon="4.10539">
        <ele>312.428</ele>
        <time>2020-09-09T02:04:48Z</time>
      </trkpt>
      <trkpt lat="44.37493" lon="4.1059">
        <ele>308.641</ele>
        <time>2020-09-09T02:04:28Z</time>
      </trkpt>
      <trkpt lat="44.37519" lon="4.1059">
        <ele>310.77</ele>
        <time>2020-09-09T02:04:08Z</time>
      </trkpt>
      <trkpt lat="44.37566" lon="4.10634">
        <ele>309.686</ele>
        <time>2020-09-09T02:03:48Z</time>
      </trkpt>
      <trkpt lat="44.37616" lon="4.10608">
        <ele>315.276</ele>
        <time>2020-09-09T02:03:28Z</time>
      </trkpt>
      <trkpt lat="44.3764" lon="4.10625">
        <ele>314.842</ele>
        <time>2020-09-09T02:03:08Z</time>
      </trkpt>
      <trkpt lat="44.37646" lon="4.1069">
        <ele>310.095</ele>
        <time>2020-09-09T02:02:48Z</time>
      </trkpt>
      <trkpt lat="44.37666" lon="4.10709">
        <ele>309.844</ele>
        <time>2020-09-09T02:02:28Z</time>
      </trkpt>
      <trkpt lat="44.37738" lon="4.10705">
        <ele>316.508</ele>
        <time>2020-09-09T02:02:08Z</time>
      </trkpt>
      <trkpt lat="44.37806" lon="4.10769">
        <ele>320.624</ele>
        <time>2020-09-09T02:01:48Z</time>
      </trkpt>
      <trkpt lat="44.37843" lon="4.10842">
        <ele>316.331</ele>
        <time>2020-09-09T02:01:28Z</time>
      </trkpt>
      <trkpt lat="44.37912" lon="4.10855">
        <ele>318.996</ele>
        <time>2020-09-09T02:01:08Z</time>
      </trkpt>
      <trkpt lat="44.37924" lon="4.10918">
        <ele>320.586</ele>
        <time>2020-09-09T02:00:48Z</time>
      </trkpt>
      <trkpt lat="44.37976" lon="4.1098">
        <ele>321.249</ele>
        <time>2020-09-09T02:00:28Z</time>
      </trkpt>
      <trkpt lat="44.37984" lon="4.1106">
        <ele>321.858</ele>
        <time>2020-09-09T02:00:08Z</time>
      </trkpt>
      <trkpt lat="44.38017" lon="4.11157">
        <ele>330.954</ele>
        <time>2020-09-09T01:59:48Z</time>
      </trkpt>
      <trkpt lat="44.38088" lon="4.1117">
        <ele>337.324</ele>
        <time>2020-09-09T01:59:28Z</time>
      </trkpt>
      <trkpt lat="44.38143" lon="4.11197">
        <ele>336.33</ele>
        <time>2020-09-09T01:59:08Z</time>
      </trkpt>
      <trkpt lat="44.38167" lon="4.11227">
        <ele>334.183</ele>
        <time>2020-09-09T01:58:48Z</time>
      </trkpt>
      <trkpt lat="44.38204" lon="4.11245">
        <ele>333.812</ele>
        <time>2020-09-09T01:58:28Z</time>
      </trkpt>
      <trkpt lat="44.38234" lon="4.1126">
        <ele>328.008</ele>
        <time>2020-09-09T01:58:08Z</time>
      </trkpt>
      <trkpt lat="44.38316" lon="4.11333">
        <ele>322.613</ele>
        <time>2020-09-09T01:57:48Z</time>
      </trkpt>
      <trkpt lat="44.38349" lon="4.11314">
        <ele>324.685</ele>
        <time>2020-09-09T01:57:28Z</time>
      </trkpt>
      <trkpt lat="44.38367" lon="4.1132">
        <ele>325.773</ele>
        <time>2020-09-09T01:57:08Z</time>
      </trkpt>
      <trkpt lat="44.38363" lon="4.11359">
        <ele>325.083</ele>
        <time>2020-09-09T01:56:48Z</time>
      </trkpt>
      <trkpt lat="44.38427" lon="4.11486">
        <ele>339.236</ele>
        <time>2020-09-09T01:56:28Z</time>
      </trkpt>
      <trkpt lat="44.38507" lon="4.1149">
        <ele>345.335</ele>
        <time>2020-09-09T01:56:08Z</time>
      </trkpt>
      <trkpt lat="44.38525" lon="4.11516">
        <ele>338.681</ele>
        <time>2020-09-09T01:55:48Z</time>
      </trkpt>
      <trkpt lat="44.38567" lon="4.11524">
        <ele>338.541</ele>
        <time>2020-09-09T01:55:28Z</time>
      </trkpt>
      <trkpt lat="44.38593" lon="4.11602">
        <ele>332.587</ele>
        <time>2020-09-09T01:55:08Z</time>
      </trkpt>
      <trkpt lat="44.38609" lon="4.11604">
        <ele>333.01</ele>
        <time>2020-09-09T01:54:48Z</time>
      </trkpt>
      <trkpt lat="44.38645" lon="4.11581">
        <ele>338.129</ele>
        <time>2020-09-09T01:54:28Z</time>
      </trkpt>
      <trkpt lat="44.38664" lon="4.11632">
        <ele>335.408</ele>
        <time>2020-09-09T01:54:08Z</time>
      </trkpt>
      <trkpt lat="44.38721" lon="4.11636">
        <ele>346.81</ele>
        <time>2020-09-09T01:53:48Z</time>
      </trkpt>
      <trkpt lat="44.38717" lon="4.11595">
        <ele>347.064</ele>
        <time>2020-09-09T01:53:28Z</time>
      </trkpt>
      <trkpt lat="44.38718" lon="4.11552">
        <ele>348.543</ele>
        <time>2020-09-09T01:53:08Z</time>
      </trkpt>
      <trkpt lat="44.38736" lon="4.11486">
        <ele>352.438</ele>
        <time>2020-09-09T01:52:48Z</time>
      </trkpt>
      <trkpt lat="44.38738" lon="4.11454">
        <ele>351.241</ele>
        <time>2020-09-09T01:52:28Z</time>
      </trkpt>
      <trkpt lat="44.38752" lon="4.11393">
        <ele>355.43</ele>
        <time>2020-09-09T01:52:08Z</time>
      </trkpt>
      <trkpt lat="44.38786" lon="4.11339">
        <ele>356.296</ele>
        <time>2020-09-09T01:51:48Z</time>
      </trkpt>
      <trkpt lat="44.38778" lon="4.1132">
        <ele>357.476</ele>
        <time>2020-09-09T01:51:28Z</time>
      </trkpt>
      <trkpt lat="44.3873" lon="4.11312">
        <ele>353.362</ele>
        <time>2020-09-09T01:51:08Z</time>
      </trkpt>
      <trkpt lat="44.38698" lon="4.11251">
        <ele>357.355</ele>
        <time>2020-09-09T01:50:48Z</time>
      </trkpt>
      <trkpt lat="44.38636" lon="4.11335">
        <ele>357.264</ele>
        <time>2020-09-09T01:50:28Z</time>
      </trkpt>
      <trkpt lat="44.38632" lon="4.11256">
        <ele>362.008</ele>
        <time>2020-09-09T01:50:08Z</time>
      </trkpt>
      <trkpt lat="44.38637" lon="4.11184">
        <ele>370.026</ele>
        <time>2020-09-09T01:49:48Z</time>
      </trkpt>
      <trkpt lat="44.38646" lon="4.1086">
        <ele>410.615</ele>
        <time>2020-09-09T01:49:28Z</time>
      </trkpt>
      <trkpt lat="44.38684" lon="4.10728">
        <ele>430.898</ele>
        <time>2020-09-09T01:49:08Z</time>
      </trkpt>
      <trkpt lat="44.38821" lon="4.10494">
        <ele>465.788</ele>
        <time>2020-09-09T01:48:48Z</time>
      </trkpt>
      <trkpt lat="44.3883" lon="4.10457">
        <ele>465.811</ele>
        <time>2020-09-09T01:48:28Z</time>
      </trkpt>
      <trkpt lat="44.3882" lon="4.10399">
        <ele>478.25</ele>
        <time>2020-09-09T01:48:08Z</time>
      </trkpt>
      <trkpt lat="44.38713" lon="4.10403">
        <ele>465.196</ele>
        <time>2020-09-09T01:47:48Z</time>
      </trkpt>
      <trkpt lat="44.38686" lon="4.10414">
        <ele>459.436</ele>
        <time>2020-09-09T01:47:28Z</time>
      </trkpt>
      <trkpt lat="44.38669" lon="4.1038">
        <ele>462.612</ele>
        <time>2020-09-09T01:47:08Z</time>
      </trkpt>
      <trkpt lat="44.38662" lon="4.10307">
        <ele>460.635</ele>
        <time>2020-09-09T01:46:48Z</time>
      </trkpt>
      <trkpt lat="44.38673" lon="4.10208">
        <ele>481.024</ele>
        <time>2020-09-09T01:46:28Z</time>
      </trkpt>
      <trkpt lat="44.38598" lon="4.10188">
        <ele>472.808</ele>
        <time>2020-09-09T01:46:08Z</time>
      </trkpt>
      <trkpt lat="44.38557" lon="4.10144">
        <ele>492.019</ele>
        <time>2020-09-09T01:45:48Z</time>
      </trkpt>
      <trkpt lat="44.38502" lon="4.10149">
        <ele>493.481</ele>
        <time>2020-09-09T01:45:28Z</time>
      </trkpt>
      <trkpt lat="44.38455" lon="4.10102">
        <ele>503.691</ele>
        <time>2020-09-09T01:45:08Z</time>
      </trkpt>
      <trkpt lat="44.38431" lon="4.10102">
        <ele>504.461</ele>
        <time>2020-09-09T01:44:48Z</time>
      </trkpt>
      <trkpt lat="44.38419" lon="4.10067">
        <ele>510.954</ele>
        <time>2020-09-09T01:44:28Z</time>
      </trkpt>
      <trkpt lat="44.38422" lon="4.10014">
        <ele>513.793</ele>
        <time>2020-09-09T01:44:08Z</time>
      </trkpt>
      <trkpt lat="44.38431" lon="4.10009">
        <ele>514.139</ele>
        <time>2020-09-09T01:43:48Z</time>
      </trkpt>
      <trkpt lat="44.38456" lon="4.10017">
        <ele>520.619</ele>
        <time>2017-01-24T17:54:43Z</time>
      </trkpt>
      <trkpt lat="44.3849" lon="4.10012">
        <ele>525.765</ele>
        <time>2017-01-24T17:54:23Z</time>
      </trkpt>
      <trkpt lat="44.38531" lon="4.09993">
        <ele>530.288</ele>
        <time>2017-01-24T17:54:03Z</time>
      </trkpt>
      <trkpt lat="44.38574" lon="4.09988">
        <ele>534.797</ele>
        <time>2017-01-24T17:53:43Z</time>
      </trkpt>
      <trkpt lat="44.38647" lon="4.09939">
        <ele>547.008</ele>
        <time>2017-01-24T17:53:23Z</time>
      </trkpt>
      <trkpt lat="44.387" lon="4.09892">
        <ele>553.111</ele>
        <time>2017-01-24T17:53:03Z</time>
      </trkpt>
      <trkpt lat="44.38743" lon="4.0983">
        <ele>567.483</ele>
        <time>2017-01-24T17:52:43Z</time>
      </trkpt>
      <trkpt lat="44.38765" lon="4.09816">
        <ele>574.123</ele>
        <time>2017-01-24T17:52:23Z</time>
      </trkpt>
      <trkpt lat="44.38796" lon="4.09816">
        <ele>579.438</ele>
        <time>2017-01-24T17:52:03Z</time>
      </trkpt>
      <trkpt lat="44.38837" lon="4.09847">
        <ele>584.181</ele>
        <time>2017-01-24T17:51:43Z</time>
      </trkpt>
      <trkpt lat="44.38856" lon="4.09828">
        <ele>587.62</ele>
        <time>2017-01-24T17:51:23Z</time>
      </trkpt>
      <trkpt lat="44.38902" lon="4.09726">
        <ele>586.436</ele>
        <time>2017-01-24T17:51:03Z</time>
      </trkpt>
      <trkpt lat="44.3894" lon="4.09651">
        <ele>582.436</ele>
        <time>2017-01-24T17:50:43Z</time>
      </trkpt>
      <trkpt lat="44.38954" lon="4.09604">
        <ele>586.442</ele>
        <time>2017-01-24T17:50:23Z</time>
      </trkpt>
      <trkpt lat="44.38969" lon="4.09596">
        <ele>585.765</ele>
        <time>2017-01-24T17:50:03Z</time>
      </trkpt>
      <trkpt lat="44.39014" lon="4.09642">
        <ele>565.914</ele>
        <time>2017-01-24T17:49:43Z</time>
      </trkpt>
      <trkpt lat="44.39044" lon="4.09641">
        <ele>562.508</ele>
        <time>2017-01-24T17:49:23Z</time>
      </trkpt>
      <trkpt lat="44.39068" lon="4.09597">
        <ele>569.026</ele>
        <time>2017-01-24T17:49:03Z</time>
      </trkpt>
      <trkpt lat="44.39105" lon="4.09563">
        <ele>568.615</ele>
        <time>2017-01-24T17:48:43Z</time>
      </trkpt>
      <trkpt lat="44.39128" lon="4.09592">
        <ele>557.498</ele>
        <time>2017-01-24T17:48:23Z</time>
      </trkpt>
      <trkpt lat="44.39139" lon="4.09601">
        <ele>554.233</ele>
        <time>2017-01-24T17:48:03Z</time>
      </trkpt>
      <trkpt lat="44.39153" lon="4.09592">
        <ele>552.026</ele>
        <time>2017-01-24T17:47:43Z</time>
      </trkpt>
      <trkpt lat="44.39177" lon="4.09535">
        <ele>557.965</ele>
        <time>2017-01-24T17:47:23Z</time>
      </trkpt>
      <trkpt lat="44.39241" lon="4.09458">
        <ele>560.491</ele>
        <time>2017-01-24T17:47:03Z</time>
      </trkpt>
      <trkpt lat="44.39274" lon="4.09462">
        <ele>551.521</ele>
        <time>2017-01-24T17:46:43Z</time>
      </trkpt>
      <trkpt lat="44.39312" lon="4.09446">
        <ele>546.827</ele>
        <time>2017-01-24T17:46:23Z</time>
      </trkpt>
      <trkpt lat="44.39341" lon="4.09404">
        <ele>548.04</ele>
        <time>2017-01-24T17:46:03Z</time>
      </trkpt>
      <trkpt lat="44.39364" lon="4.09336">
        <ele>558.799</ele>
        <time>2017-01-24T17:45:43Z</time>
      </trkpt>
      <trkpt lat="44.39389" lon="4.09343">
        <ele>559.508</ele>
        <time>2017-01-24T17:45:23Z</time>
      </trkpt>
      <trkpt lat="44.39392" lon="4.09379">
        <ele>554.715</ele>
        <time>2017-01-24T17:45:03Z</time>
      </trkpt>
      <trkpt lat="44.39401" lon="4.0944">
        <ele>553.605</ele>
        <time>2017-01-24T17:44:43Z</time>
      </trkpt>
      <trkpt lat="44.39388" lon="4.09517">
        <ele>548.044</ele>
        <time>2017-01-24T17:44:23Z</time>
      </trkpt>
      <trkpt lat="44.39369" lon="4.09574">
        <ele>543.244</ele>
        <time>2017-01-24T17:44:03Z</time>
      </trkpt>
      <trkpt lat="44.39356" lon="4.09638">
        <ele>538.877</ele>
        <time>2017-01-24T17:43:43Z</time>
      </trkpt>
      <trkpt lat="44.39399" lon="4.0977">
        <ele>531.366</ele>
        <time>2017-01-24T17:43:23Z</time>
      </trkpt>
      <trkpt lat="44.39425" lon="4.09782">
        <ele>535.682</ele>
        <time>2017-01-24T17:43:03Z</time>
      </trkpt>
      <trkpt lat="44.39507" lon="4.09739">
        <ele>542.442</ele>
        <time>2017-01-24T17:42:43Z</time>
      </trkpt>
      <trkpt lat="44.39526" lon="4.09785">
        <ele>534.338</ele>
        <time>2017-01-24T17:42:23Z</time>
      </trkpt>
      <trkpt lat="44.39553" lon="4.09837">
        <ele>532.041</ele>
        <time>2017-01-24T17:42:03Z</time>
      </trkpt>
      <trkpt lat="44.39541" lon="4.09899">
        <ele>523.27</ele>
        <time>2017-01-24T17:41:43Z</time>
      </trkpt>
      <trkpt lat="44.39558" lon="4.09915">
        <ele>526.508</ele>
        <time>2017-01-24T17:41:23Z</time>
      </trkpt>
      <trkpt lat="44.396" lon="4.09922">
        <ele>526.308</ele>
        <time>2017-01-24T17:41:03Z</time>
      </trkpt>
      <trkpt lat="44.39684" lon="4.09894">
        <ele>521.753</ele>
        <time>2017-01-24T17:40:43Z</time>
      </trkpt>
      <trkpt lat="44.39721" lon="4.09858">
        <ele>510.452</ele>
        <time>2017-01-24T17:40:23Z</time>
      </trkpt>
      <trkpt lat="44.39736" lon="4.09812">
        <ele>513.298</ele>
        <time>2017-01-24T17:40:03Z</time>
      </trkpt>
      <trkpt lat="44.39756" lon="4.09803">
        <ele>508.961</ele>
        <time>2017-01-24T17:39:43Z</time>
      </trkpt>
      <trkpt lat="44.39788" lon="4.0981">
        <ele>499.62</ele>
        <time>2017-01-24T17:39:23Z</time>
      </trkpt>
      <trkpt lat="44.39832" lon="4.09788">
        <ele>497.166</ele>
        <time>2017-01-24T17:39:03Z</time>
      </trkpt>
      <trkpt lat="44.39868" lon="4.0975">
        <ele>497.546</ele>
        <time>2017-01-24T17:38:43Z</time>
      </trkpt>
      <trkpt lat="44.39891" lon="4.09704">
        <ele>498.192</ele>
        <time>2017-01-24T17:38:23Z</time>
      </trkpt>
      <trkpt lat="44.39923" lon="4.09681">
        <ele>493.855</ele>
        <time>2017-01-24T17:38:03Z</time>
      </trkpt>
      <trkpt lat="44.39939" lon="4.0968">
        <ele>492.714</ele>
        <time>2017-01-24T17:37:43Z</time>
      </trkpt>
      <trkpt lat="44.39962" lon="4.09671">
        <ele>492.308</ele>
        <time>2017-01-24T17:37:23Z</time>
      </trkpt>
      <trkpt lat="44.40005" lon="4.09667">
        <ele>486.325</ele>
        <time>2017-01-24T17:37:03Z</time>
      </trkpt>
      <trkpt lat="44.40036" lon="4.09643">
        <ele>484.123</ele>
        <time>2017-01-24T17:36:43Z</time>
      </trkpt>
      <trkpt lat="44.40035" lon="4.0971">
        <ele>475.297</ele>
        <time>2017-01-24T17:36:23Z</time>
      </trkpt>
      <trkpt lat="44.40032" lon="4.09742">
        <ele>471.817</ele>
        <time>2017-01-24T17:36:03Z</time>
      </trkpt>
      <trkpt lat="44.40031" lon="4.09824">
        <ele>466.12</ele>
        <time>2017-01-24T17:35:43Z</time>
      </trkpt>
      <trkpt lat="44.40017" lon="4.09848">
        <ele>464.939</ele>
        <time>2017-01-24T17:35:23Z</time>
      </trkpt>
      <trkpt lat="44.39999" lon="4.099">
        <ele>459.845</ele>
        <time>2017-01-24T17:35:03Z</time>
      </trkpt>
      <trkpt lat="44.39967" lon="4.09971">
        <ele>450.325</ele>
        <time>2017-01-24T17:34:43Z</time>
      </trkpt>
      <trkpt lat="44.39943" lon="4.10067">
        <ele>440.971</ele>
        <time>2017-01-24T17:34:23Z</time>
      </trkpt>
      <trkpt lat="44.39916" lon="4.10157">
        <ele>435.024</ele>
        <time>2017-01-24T17:34:03Z</time>
      </trkpt>
      <trkpt lat="44.39901" lon="4.1024">
        <ele>422.523</ele>
        <time>2017-01-24T17:33:43Z</time>
      </trkpt>
      <trkpt lat="44.39903" lon="4.10305">
        <ele>414.508</ele>
        <time>2017-01-24T17:33:23Z</time>
      </trkpt>
      <trkpt lat="44.39898" lon="4.10408">
        <ele>403.426</ele>
        <time>2017-01-24T17:33:03Z</time>
      </trkpt>
      <trkpt lat="44.39883" lon="4.10461">
        <ele>396.106</ele>
        <time>2017-01-24T17:32:43Z</time>
      </trkpt>
      <trkpt lat="44.39879" lon="4.10527">
        <ele>382.989</ele>
        <time>2017-01-24T17:32:23Z</time>
      </trkpt>
      <trkpt lat="44.39903" lon="4.10609">
        <ele>369.417</ele>
        <time>2017-01-24T17:32:03Z</time>
      </trkpt>
      <trkpt lat="44.39926" lon="4.10703">
        <ele>369.96</ele>
        <time>2017-01-24T17:31:43Z</time>
      </trkpt>
      <trkpt lat="44.39933" lon="4.10811">
        <ele>356.059</ele>
        <time>2017-01-24T17:31:23Z</time>
      </trkpt>
      <trkpt lat="44.3993" lon="4.10859">
        <ele>353.725</ele>
        <time>2017-01-24T17:31:03Z</time>
      </trkpt>
      <trkpt lat="44.39891" lon="4.11005">
        <ele>348.115</ele>
        <time>2017-01-24T17:30:43Z</time>
      </trkpt>
      <trkpt lat="44.39872" lon="4.11083">
        <ele>328.041</ele>
        <time>2017-01-24T17:30:23Z</time>
      </trkpt>
      <trkpt lat="44.39874" lon="4.11138">
        <ele>317.864</ele>
        <time>2017-01-24T17:30:03Z</time>
      </trkpt>
      <trkpt lat="44.39885" lon="4.11164">
        <ele>317.673</ele>
        <time>2017-01-24T17:29:43Z</time>
      </trkpt>
      <trkpt lat="44.39949" lon="4.1126">
        <ele>300.208</ele>
        <time>2017-01-24T17:29:23Z</time>
      </trkpt>
      <trkpt lat="44.39955" lon="4.1133">
        <ele>285.517</ele>
        <time>2017-01-24T17:29:03Z</time>
      </trkpt>
      <trkpt lat="44.39964" lon="4.11356">
        <ele>283.425</ele>
        <time>2017-01-24T17:28:43Z</time>
      </trkpt>
      <trkpt lat="44.39958" lon="4.11374">
        <ele>282.583</ele>
        <time>2017-01-24T17:28:23Z</time>
      </trkpt>
      <trkpt lat="44.39949" lon="4.11375">
        <ele>282.98</ele>
        <time>2017-01-24T17:28:03Z</time>
      </trkpt>
      <trkpt lat="44.39936" lon="4.11384">
        <ele>283.383</ele>
        <time>2017-01-24T17:27:43Z</time>
      </trkpt>
      <trkpt lat="44.39935" lon="4.11403">
        <ele>282.752</ele>
        <time>2017-01-24T17:27:23Z</time>
      </trkpt>
      <trkpt lat="44.39919" lon="4.11409">
        <ele>281.358</ele>
        <time>2017-01-24T17:27:03Z</time>
      </trkpt>
      <trkpt lat="44.39915" lon="4.11427">
        <ele>277.998</ele>
        <time>2017-01-24T17:26:43Z</time>
      </trkpt>
      <trkpt lat="44.39921" lon="4.11439">
        <ele>277.274</ele>
        <time>2017-01-24T17:26:23Z</time>
      </trkpt>
      <trkpt lat="44.39908" lon="4.11463">
        <ele>268.247</ele>
        <time>2017-01-24T17:26:03Z</time>
      </trkpt>
      <trkpt lat="44.39879" lon="4.11466">
        <ele>259.176</ele>
        <time>2017-01-24T17:25:43Z</time>
      </trkpt>
      <trkpt lat="44.39868" lon="4.11485">
        <ele>253.508</ele>
        <time>2017-01-24T17:25:23Z</time>
      </trkpt>
      <trkpt lat="44.39864" lon="4.11531">
        <ele>243.305</ele>
        <time>2017-01-24T17:25:03Z</time>
      </trkpt>
      <trkpt lat="44.39904" lon="4.11599">
        <ele>231.132</ele>
        <time>2017-01-24T17:24:43Z</time>
      </trkpt>
      <trkpt lat="44.3992" lon="4.11632">
        <ele>225.612</ele>
        <time>2017-01-24T17:24:23Z</time>
      </trkpt>
      <trkpt lat="44.3993" lon="4.11673">
        <ele>218.813</ele>
        <time>2017-01-24T17:24:03Z</time>
      </trkpt>
      <trkpt lat="44.39944" lon="4.11703">
        <ele>217.126</ele>
        <time>2017-01-24T17:23:43Z</time>
      </trkpt>
      <trkpt lat="44.39976" lon="4.11716">
        <ele>215.345</ele>
        <time>2017-01-24T17:23:23Z</time>
      </trkpt>
      <trkpt lat="44.3999" lon="4.11732">
        <ele>211.921</ele>
        <time>2017-01-24T17:23:03Z</time>
      </trkpt>
      <trkpt lat="44.4005" lon="4.11907">
        <ele>206.841</ele>
        <time>2017-01-24T17:22:43Z</time>
      </trkpt>
      <trkpt lat="44.40051" lon="4.11956">
        <ele>204.937</ele>
        <time>2017-01-24T17:22:23Z</time>
      </trkpt>
      <trkpt lat="44.40039" lon="4.11972">
        <ele>201.74</ele>
        <time>2017-01-24T17:22:03Z</time>
      </trkpt>
      <trkpt lat="44.40032" lon="4.11993">
        <ele>199.779</ele>
        <time>2017-01-24T17:21:43Z</time>
      </trkpt>
      <trkpt lat="44.40011" lon="4.12036">
        <ele>199.608</ele>
        <time>2017-01-24T17:21:23Z</time>
      </trkpt>
      <trkpt lat="44.40008" lon="4.12084">
        <ele>199.009</ele>
        <time>2017-01-24T17:21:03Z</time>
      </trkpt>
      <trkpt lat="44.40019" lon="4.12121">
        <ele>198.381</ele>
        <time>2017-01-24T17:20:43Z</time>
      </trkpt>
      <trkpt lat="44.40036" lon="4.12157">
        <ele>197.341</ele>
        <time>2017-01-24T17:20:23Z</time>
      </trkpt>
      <trkpt lat="44.40076" lon="4.12195">
        <ele>197.736</ele>
        <time>2017-01-24T17:20:03Z</time>
      </trkpt>
      <trkpt lat="44.40094" lon="4.1224">
        <ele>195.939</ele>
        <time>2017-01-24T17:19:43Z</time>
      </trkpt>
      <trkpt lat="44.40106" lon="4.12291">
        <ele>193.398</ele>
        <time>2017-01-24T17:19:23Z</time>
      </trkpt>
      <trkpt lat="44.40135" lon="4.12336">
        <ele>192.394</ele>
        <time>2017-01-24T17:19:03Z</time>
      </trkpt>
      <trkpt lat="44.40153" lon="4.1235">
        <ele>191.744</ele>
        <time>2017-01-24T17:18:43Z</time>
      </trkpt>
      <trkpt lat="44.40159" lon="4.12375">
        <ele>192.36</ele>
        <time>2017-01-24T17:18:23Z</time>
      </trkpt>
      <trkpt lat="44.40237" lon="4.12465">
        <ele>195.013</ele>
        <time>2017-01-24T17:18:03Z</time>
      </trkpt>
      <trkpt lat="44.40253" lon="4.12499">
        <ele>199.832</ele>
        <time>2017-01-24T17:17:43Z</time>
      </trkpt>
      <trkpt lat="44.40301" lon="4.12565">
        <ele>193.308</ele>
        <time>2017-01-24T17:17:23Z</time>
      </trkpt>
      <trkpt lat="44.40376" lon="4.12691">
        <ele>188.321</ele>
        <time>2017-01-24T17:17:03Z</time>
      </trkpt>
      <trkpt lat="44.40409" lon="4.12726">
        <ele>187.156</ele>
        <time>2017-01-24T17:16:43Z</time>
      </trkpt>
      <trkpt lat="44.40442" lon="4.12779">
        <ele>185.274</ele>
        <time>2017-01-24T17:16:23Z</time>
      </trkpt>
      <trkpt lat="44.40493" lon="4.12882">
        <ele>178.023</ele>
        <time>2017-01-24T17:16:03Z</time>
      </trkpt>
      <trkpt lat="44.4053" lon="4.12923">
        <ele>180.296</ele>
        <time>2017-01-24T17:15:43Z</time>
      </trkpt>
      <trkpt lat="44.4052" lon="4.12986">
        <ele>180.865</ele>
        <time>2017-01-24T17:15:23Z</time>
      </trkpt>
      <trkpt lat="44.40534" lon="4.12995">
        <ele>180.121</ele>
        <time>2017-01-24T17:15:03Z</time>
      </trkpt>
      <trkpt lat="44.4056" lon="4.13083">
        <ele>180.031</ele>
        <time>2017-01-24T17:14:43Z</time>
      </trkpt>
      <trkpt lat="44.40591" lon="4.13157">
        <ele>175.837</ele>
        <time>2017-01-24T17:14:23Z</time>
      </trkpt>
      <trkpt lat="44.40608" lon="4.13206">
        <ele>173.86</ele>
        <time>2017-01-24T17:14:03Z</time>
      </trkpt>
      <trkpt lat="44.40612" lon="4.13248">
        <ele>173.049</ele>
        <time>2017-01-24T17:13:43Z</time>
      </trkpt>
      <trkpt lat="44.40624" lon="4.13268">
        <ele>172.208</ele>
        <time>2017-01-24T17:13:23Z</time>
      </trkpt>
      <trkpt lat="44.40624" lon="4.13268">
        <ele>172.216</ele>
        <time>2017-01-24T17:13:03Z</time>
      </trkpt>
      <trkpt lat="44.40687" lon="4.13268">
        <ele>174.388</ele>
        <time>2017-01-24T17:12:43Z</time>
      </trkpt>
      <trkpt lat="44.40803" lon="4.13232">
        <ele>181.546</ele>
        <time>2017-01-24T17:12:23Z</time>
      </trkpt>
      <trkpt lat="44.40885" lon="4.13233">
        <ele>188.153</ele>
        <time>2017-01-24T17:12:03Z</time>
      </trkpt>
      <trkpt lat="44.40925" lon="4.13215">
        <ele>192.016</ele>
        <time>2017-01-24T17:11:43Z</time>
      </trkpt>
      <trkpt lat="44.40962" lon="4.13212">
        <ele>192.015</ele>
        <time>2017-01-24T17:11:23Z</time>
      </trkpt>
      <trkpt lat="44.4102" lon="4.13245">
        <ele>189.511</ele>
        <time>2017-01-24T17:11:03Z</time>
      </trkpt>
      <trkpt lat="44.41074" lon="4.1332">
        <ele>187.471</ele>
        <time>2017-01-24T17:10:43Z</time>
      </trkpt>
      <trkpt lat="44.41126" lon="4.13418">
        <ele>182.837</ele>
        <time>2017-01-24T17:10:23Z</time>
      </trkpt>
      <trkpt lat="44.41151" lon="4.13421">
        <ele>177.91</ele>
        <time>2017-01-24T17:10:03Z</time>
      </trkpt>
      <trkpt lat="44.4119" lon="4.13438">
        <ele>166.539</ele>
        <time>2017-01-24T17:09:43Z</time>
      </trkpt>
      <trkpt lat="44.412" lon="4.13471">
        <ele>164.608</ele>
        <time>2017-01-24T17:09:23Z</time>
      </trkpt>
      <trkpt lat="44.41221" lon="4.13515">
        <ele>157.314</ele>
        <time>2017-01-24T17:09:03Z</time>
      </trkpt>
      <trkpt lat="44.41296" lon="4.13562">
        <ele>150.9</ele>
      </trkpt>
      <trkpt lat="44.41332" lon="4.13543">
        <ele>149.1</ele>
      </trkpt>
      <trkpt lat="44.41377" lon="4.13596">
        <ele>147</ele>
      </trkpt>
      <trkpt lat="44.41403" lon="4.13902">
        <ele>149.3</ele>
      </trkpt>
      <trkpt lat="44.41437" lon="4.13993">
        <ele>146.8</ele>
      </trkpt>
      <trkpt lat="44.41429" lon="4.14151">
        <ele>150.6</ele>
      </trkpt>
    </trkseg>
  </trk>
</gpx>